Time;durP1;ratioP1;P1;durP2;ratioP2;P2;SDS_P1;SDS_P2;PMS_P1;PMS_P2;Temp;Humidity;BMP_temperature;BMP_pressure;BME280_temperature;BME280_humidity;BME280_pressure;Samples;Min_cycle;Max_cycle;Signal;HPM_P1;HPM_P2
2021/07/19 00:00:00;;;;;;;;;;;;;;;22.94;57.38;102074.81;4995794;28;775;-73
2021/07/19 00:02:26;;;;;;;;;;;;;;;22.93;57.21;102073.94;5001745;28;1975;-73
2021/07/19 00:04:51;;;;;;;;;;;;;;;22.92;57.03;102068.69;5015514;28;815;-73
2021/07/19 00:07:16;;;;;;;;;;;;;;;22.92;57.38;102068.69;5015416;28;1056;-74
2021/07/19 00:09:44;;;;;;;;;;;;;;;22.90;57.14;102071.56;5030400;28;1350;-74
2021/07/19 00:12:09;;;;;;;;;;;;;;;22.89;57.27;102067.13;5015465;28;1979;-74
2021/07/19 00:14:34;;;;;;;;;;;;;;;22.86;57.24;102064.69;5028290;28;1904;-74
2021/07/19 00:16:59;;;;;;;;;;;;;;;22.86;57.13;102064.69;5014175;28;1821;-74
2021/07/19 00:19:24;;;;;;;;;;;;;;;22.85;57.14;102065.69;5015139;28;961;-74
2021/07/19 00:21:50;;;;;;;;;;;;;;;22.84;57.18;102064.84;5015155;28;887;-74
2021/07/19 00:24:15;;;;;;;;;;;;;;;22.84;57.23;102064.84;5015260;28;1945;-73
2021/07/19 00:26:40;;;;;;;;;;;;;;;22.84;57.28;102058.56;5013989;28;1784;-74
2021/07/19 00:29:05;;;;;;;;;;;;;;;22.83;57.23;102065.84;5015137;28;982;-74
2021/07/19 00:31:34;;;;;;;;;;;;;;;22.83;57.20;102070.44;5015372;28;906;-74
2021/07/19 00:34:00;;;;;;;;;;;;;;;22.83;57.00;102070.44;5014776;28;1930;-74
2021/07/19 00:36:25;;;;;;;;;;;;;;;22.84;57.21;102066.72;5014997;28;1010;-74
2021/07/19 00:38:51;;;;;;;;;;;;;;;22.84;57.08;102067.56;5015227;28;1033;-74
2021/07/19 00:41:16;;;;;;;;;;;;;;;22.80;57.11;102070.72;5015211;28;776;-73
2021/07/19 00:43:41;;;;;;;;;;;;;;;22.79;57.00;102069.88;5017009;28;1817;-73
2021/07/19 00:46:06;;;;;;;;;;;;;;;22.78;56.94;102060.00;5018354;28;1922;-73
2021/07/19 00:48:31;;;;;;;;;;;;;;;22.78;57.10;102067.28;5019155;28;811;-73
2021/07/19 00:50:57;;;;;;;;;;;;;;;22.78;57.16;102065.44;5018843;28;1069;-73
2021/07/19 00:53:22;;;;;;;;;;;;;;;22.75;57.04;102049.38;5034372;28;1965;-73
2021/07/19 00:55:47;;;;;;;;;;;;;;;22.76;57.01;102050.25;5033980;28;1256;-73
2021/07/19 00:58:12;;;;;;;;;;;;;;;22.74;57.07;102063.16;4999634;28;1943;-73
2021/07/19 01:00:37;;;;;;;;;;;;;;;22.73;56.87;102056.84;5030632;28;2379;-73
2021/07/19 01:03:04;;;;;;;;;;;;;;;22.71;56.91;102058.00;4998940;28;765;-73
2021/07/19 01:05:29;;;;;;;;;;;;;;;22.70;56.94;102057.16;4999407;28;807;-74
2021/07/19 01:07:54;;;;;;;;;;;;;;;22.70;57.02;102053.56;4999030;28;1727;-74
2021/07/19 01:10:19;;;;;;;;;;;;;;;22.70;56.99;102048.13;5018430;28;998;-74
2021/07/19 01:12:44;;;;;;;;;;;;;;;22.67;56.98;102046.56;5018176;28;2023;-74
2021/07/19 01:15:09;;;;;;;;;;;;;;;22.66;56.88;102038.56;5018313;28;1057;-74
2021/07/19 01:17:34;;;;;;;;;;;;;;;22.62;56.94;102037.16;5033484;28;1357;-74
2021/07/19 01:19:59;;;;;;;;;;;;;;;22.65;57.06;102037.72;5018094;28;1965;-73
2021/07/19 01:22:24;;;;;;;;;;;;;;;;;;4999078;28;1692;-73
2021/07/19 01:24:49;;;;;;;;;;;;;;;22.61;56.82;102035.44;4998631;28;986;-74
2021/07/19 01:27:14;;;;;;;;;;;;;;;22.61;56.96;102024.56;4998698;28;887;-74
2021/07/19 01:29:39;;;;;;;;;;;;;;;22.60;56.84;102029.13;4998504;28;1073;-74
2021/07/19 01:32:04;;;;;;;;;;;;;;;22.60;56.73;102034.56;5001319;28;1896;-73
2021/07/19 01:34:30;;;;;;;;;;;;;;;22.57;56.89;102034.91;5018171;28;1882;-74
2021/07/19 01:36:55;;;;;;;;;;;;;;;22.55;57.10;102036.91;5033242;28;1319;-74
2021/07/19 01:39:20;;;;;;;;;;;;;;;22.55;57.01;102030.63;5017909;28;855;-74
2021/07/19 01:41:45;;;;;;;;;;;;;;;22.54;57.06;102029.75;5033493;28;1352;-74
2021/07/19 01:44:10;;;;;;;;;;;;;;;22.55;56.94;102030.63;5015908;28;1904;-73
2021/07/19 01:46:35;;;;;;;;;;;;;;;22.52;57.02;102032.63;5030779;28;1913;-73
2021/07/19 01:49:00;;;;;;;;;;;;;;;22.51;57.08;102030.91;4998155;28;787;-74
2021/07/19 01:51:25;;;;;;;;;;;;;;;22.51;56.90;102030.03;4998348;28;768;-74
2021/07/19 01:53:50;;;;;;;;;;;;;;;22.49;56.85;102026.63;5029266;28;1926;-73
2021/07/19 01:56:15;;;;;;;;;;;;;;;22.47;56.79;102029.47;5016778;28;1930;-73
2021/07/19 01:58:41;;;;;;;;;;;;;;;22.48;56.95;102036.63;5017641;28;1005;-73
2021/07/19 02:01:06;;;;;;;;;;;;;;;22.48;56.90;102035.78;5017607;28;1045;-73
2021/07/19 02:03:31;;;;;;;;;;;;;;;22.47;57.14;102043.06;5017567;28;843;-73
2021/07/19 02:05:56;;;;;;;;;;;;;;;22.44;56.91;102040.63;5000991;28;1964;-73
2021/07/19 02:08:21;;;;;;;;;;;;;;;22.44;56.90;102040.63;4997779;28;830;-73
2021/07/19 02:10:46;;;;;;;;;;;;;;;22.42;56.85;102036.34;4997706;28;784;-74
2021/07/19 02:13:11;;;;;;;;;;;;;;;22.41;56.95;102035.50;4997697;28;1910;-74
2021/07/19 02:15:36;;;;;;;;;;;;;;;22.40;57.06;102041.94;4997763;28;874;-73
2021/07/19 02:18:01;;;;;;;;;;;;;;;22.41;56.73;102035.50;5012219;28;1951;-73
2021/07/19 02:20:26;;;;;;;;;;;;;;;22.38;57.02;102038.53;5017087;28;2006;-73
2021/07/19 02:22:52;;;;;;;;;;;;;;;22.38;57.02;102034.97;5017236;28;847;-73
2021/07/19 02:25:17;;;;;;;;;;;;;;;22.35;57.13;102041.53;5032490;28;1390;-74
2021/07/19 02:27:42;;;;;;;;;;;;;;;22.34;56.93;102047.97;5017277;28;1041;-73
2021/07/19 02:30:07;;;;;;;;;;;;;;;22.35;56.88;102040.69;5016745;28;2077;-73
2021/07/19 02:32:32;;;;;;;;;;;;;;;22.31;57.13;102037.41;5029097;28;1895;-74
2021/07/19 02:34:57;;;;;;;;;;;;;;;22.33;56.63;102031.81;5028906;28;851;-73
2021/07/19 02:37:22;;;;;;;;;;;;;;;22.32;56.83;102030.09;4997175;28;1006;-73
2021/07/19 02:39:47;;;;;;;;;;;;;;;22.29;56.75;102025.81;4997374;28;997;-73
2021/07/19 02:42:12;;;;;;;;;;;;;;;22.29;56.53;102036.69;5047141;28;1915;-73
2021/07/19 02:44:37;;;;;;;;;;;;;;;22.27;56.66;102038.69;5016823;28;1045;-73
2021/07/19 02:47:02;;;;;;;;;;;;;;;22.25;56.62;102043.41;5032025;28;1251;-73
2021/07/19 02:49:27;;;;;;;;;;;;;;;22.25;56.75;102048.84;5016610;28;942;-73
2021/07/19 02:51:52;;;;;;;;;;;;;;;22.25;56.62;102047.97;5016571;28;812;-73
2021/07/19 02:54:18;;;;;;;;;;;;;;;22.23;56.69;102039.97;4999644;28;1981;-73
2021/07/19 02:56:43;;;;;;;;;;;;;;;22.21;56.75;102043.88;4996732;28;1161;-73
2021/07/19 02:59:08;;;;;;;;;;;;;;;22.20;56.43;102045.72;4997407;28;966;-73
2021/07/19 03:01:33;;;;;;;;;;;;;;;22.21;56.77;102038.44;4997023;28;768;-73
2021/07/19 03:03:58;;;;;;;;;;;;;;;22.19;56.71;102046.72;5028303;28;1288;-72
2021/07/19 03:06:23;;;;;;;;;;;;;;;22.17;56.58;102044.16;5028311;28;1844;-72
2021/07/19 03:08:48;;;;;;;;;;;;;;;22.18;56.61;102045.00;5028176;28;1014;-74
2021/07/19 03:11:13;;;;;;;;;;;;;;;22.14;56.54;102039.00;4996632;28;891;-74
2021/07/19 03:13:38;;;;;;;;;;;;;;;22.13;56.61;102053.59;4996477;28;1969;-74
2021/07/19 03:16:04;;;;;;;;;;;;;;;22.13;56.73;102048.16;5028120;28;808;-73
2021/07/19 03:18:29;;;;;;;;;;;;;;;22.13;56.36;102044.59;5012669;28;1910;-74
2021/07/19 03:20:54;;;;;;;;;;;;;;;22.11;56.62;102044.72;5031245;28;1259;-73
2021/07/19 03:23:19;;;;;;;;;;;;;;;22.09;56.73;102040.44;5031137;28;1755;-73
2021/07/19 03:25:44;;;;;;;;;;;;;;;22.09;56.77;102040.44;5016144;28;1050;-73
2021/07/19 03:28:09;;;;;;;;;;;;;;;22.08;56.70;102038.72;5016133;28;894;-73
2021/07/19 03:30:34;;;;;;;;;;;;;;;22.05;56.69;102048.00;5014547;28;1703;-73
2021/07/19 03:32:59;;;;;;;;;;;;;;;22.07;56.39;102037.00;5015413;28;1956;-73
2021/07/19 03:35:24;;;;;;;;;;;;;;;22.04;56.23;102043.56;5015755;28;1046;-73
2021/07/19 03:37:49;;;;;;;;;;;;;;;22.03;56.61;102051.91;5015902;28;1010;-72
2021/07/19 03:40:15;;;;;;;;;;;;;;;22.01;56.36;102048.47;5004640;28;1875;-73
2021/07/19 03:42:40;;;;;;;;;;;;;;;22.01;56.34;102056.59;4996485;28;919;-73
2021/07/19 03:45:05;;;;;;;;;;;;;;;21.99;56.18;102054.00;4996024;28;1017;-73
2021/07/19 03:47:30;;;;;;;;;;;;;;;21.98;56.20;102054.16;4996043;28;883;-72
2021/07/19 03:49:55;;;;;;;;;;;;;;;21.96;55.82;102048.84;5006954;28;1707;-73
2021/07/19 03:52:20;;;;;;;;;;;;;;;21.93;56.15;102041.00;5015686;28;1945;-74
2021/07/19 03:54:45;;;;;;;;;;;;;;;21.93;56.62;102040.13;5015914;28;925;-73
2021/07/19 03:57:10;;;;;;;;;;;;;;;21.92;56.23;102043.84;5028812;28;1655;-73
2021/07/19 03:59:36;;;;;;;;;;;;;;;21.94;56.21;102047.28;4996017;28;776;-73
2021/07/19 04:02:10;;;;;;;;;;;;;;;21.93;56.41;102040.13;5027728;28;815;-73
2021/07/19 04:04:40;;;;;;;;;;;;;;;21.91;56.32;102039.44;4995947;28;756;-73
2021/07/19 04:07:05;;;;;;;;;;;;;;;21.91;56.32;102042.13;4996909;28;1770;-73
2021/07/19 04:09:30;;;;;;;;;;;;;;;21.90;56.05;102044.00;5015064;28;1916;-73
2021/07/19 04:11:55;;;;;;;;;;;;;;;21.89;56.45;102038.72;5015115;28;989;-73
2021/07/19 04:14:20;;;;;;;;;;;;;;;21.90;56.13;102041.28;5015116;28;1906;-73
2021/07/19 04:16:45;;;;;;;;;;;;;;;21.89;56.58;102038.72;5015396;28;883;-73
2021/07/19 04:19:11;;;;;;;;;;;;;;;21.88;56.41;102034.28;5014299;28;1844;-73
2021/07/19 04:21:36;;;;;;;;;;;;;;;21.86;56.81;102033.56;4995922;28;1656;-73
2021/07/19 04:24:01;;;;;;;;;;;;;;;21.82;57.08;102033.88;4995677;28;934;-73
2021/07/19 04:26:26;;;;;;;;;;;;;;;21.83;56.72;102032.03;4995699;28;1022;-73
2021/07/19 04:28:51;;;;;;;;;;;;;;;21.83;56.62;102029.31;5027124;28;1250;-73
2021/07/19 04:31:16;;;;;;;;;;;;;;;21.82;56.57;102025.75;4997639;28;1867;-73
2021/07/19 04:33:41;;;;;;;;;;;;;;;21.82;56.40;102042.03;5014682;28;1972;-73
2021/07/19 04:36:06;;;;;;;;;;;;;;;21.80;56.25;102043.16;5030440;28;1398;-73
2021/07/19 04:38:31;;;;;;;;;;;;;;;21.79;56.21;102036.88;5014645;28;1396;-73
2021/07/19 04:40:56;;;;;;;;;;;;;;;21.77;56.66;102041.59;5030324;28;1236;-73
2021/07/19 04:43:21;;;;;;;;;;;;;;;21.78;56.28;102042.44;5011998;28;1758;-73
2021/07/19 04:45:46;;;;;;;;;;;;;;;21.78;56.69;102045.16;4995220;28;1002;-73
2021/07/19 04:48:12;;;;;;;;;;;;;;;21.79;56.58;102055.00;4995138;28;847;-73
2021/07/19 04:50:37;;;;;;;;;;;;;;;21.76;56.63;102061.56;5026506;28;1338;-73
2021/07/19 04:53:02;;;;;;;;;;;;;;;21.76;56.84;102050.72;4996415;28;1894;-73
2021/07/19 04:55:27;;;;;;;;;;;;;;;21.75;56.71;102043.59;4995088;28;1412;-73
2021/07/19 04:57:52;;;;;;;;;;;;;;;21.75;56.61;102042.72;4995153;28;772;-73
2021/07/19 05:00:17;;;;;;;;;;;;;;;21.75;57.01;102040.88;5033050;28;1980;-74
2021/07/19 05:02:42;;;;;;;;;;;;;;;21.73;56.76;102050.16;5015043;28;978;-73
2021/07/19 05:05:07;;;;;;;;;;;;;;;21.73;57.30;102045.56;5014809;28;777;-73
2021/07/19 05:07:32;;;;;;;;;;;;;;;21.74;57.34;102035.56;5014995;28;994;-73
2021/07/19 05:09:57;;;;;;;;;;;;;;;21.74;57.64;102019.31;5027538;28;1877;-73
2021/07/19 05:12:22;;;;;;;;;;;;;;;21.75;57.71;102019.16;5014660;28;1907;-73
2021/07/19 05:14:48;;;;;;;;;;;;;;;21.74;57.84;102024.72;5014516;28;772;-73
2021/07/19 05:17:13;;;;;;;;;;;;;;;21.74;57.99;102033.72;5014576;28;997;-73
2021/07/19 05:19:38;;;;;;;;;;;;;;;21.73;57.61;102023.00;5014842;28;914;-73
2021/07/19 05:22:03;;;;;;;;;;;;;;;21.73;57.95;102033.88;5013849;28;1971;-73
2021/07/19 05:24:28;;;;;;;;;;;;;;;21.73;58.36;102036.56;5013070;28;1783;-73
2021/07/19 05:26:53;;;;;;;;;;;;;;;21.74;58.01;102036.44;5014590;28;949;-72
2021/07/19 05:29:18;;;;;;;;;;;;;;;21.75;58.29;102037.28;5015280;28;2005;-73
2021/07/19 05:31:43;;;;;;;;;;;;;;;21.75;58.32;102035.44;5017699;28;1451;-72
2021/07/19 05:34:08;;;;;;;;;;;;;;;21.76;58.39;102039.88;5015782;28;1949;-73
2021/07/19 05:36:33;;;;;;;;;;;;;;;21.78;58.43;102032.44;5017823;28;2005;-72
2021/07/19 05:38:58;;;;;;;;;;;;;;;21.88;59.19;102037.00;5018100;28;1005;-73
2021/07/19 05:41:23;;;;;;;;;;;;;;;21.91;62.68;102037.56;5049723;28;1395;-73
2021/07/19 05:43:48;;;;;;;;;;;;;;;21.95;63.34;102038.16;5017438;28;886;-73
2021/07/19 05:46:14;;;;;;;;;;;;;;;21.98;62.46;102040.56;5017002;28;1731;-73
2021/07/19 05:48:39;;;;;;;;;;;;;;;21.92;61.98;102039.28;5017204;28;1621;-76
2021/07/19 05:51:04;;;;;;;;;;;;;;;21.90;60.97;102040.44;5016181;28;1719;-75
2021/07/19 05:53:29;;;;;;;;;;;;;;;21.89;61.06;102036.84;5047177;28;2305;-75
2021/07/19 05:55:54;;;;;;;;;;;;;;;21.88;61.13;102028.84;5017119;28;1422;-74
2021/07/19 05:58:19;;;;;;;;;;;;;;;21.89;60.87;102034.13;5016772;28;1576;-74
2021/07/19 06:00:44;;;;;;;;;;;;;;;21.89;60.52;102041.44;5017045;28;1440;-71
2021/07/19 06:03:09;;;;;;;;;;;;;;;21.88;61.12;102039.72;5016073;28;1377;-71
2021/07/19 06:05:36;;;;;;;;;;;;;;;21.92;60.89;102044.72;5015090;28;1662;-71
2021/07/19 06:08:01;;;;;;;;;;;;;;;21.96;60.86;102045.28;5017252;28;1426;-71
2021/07/19 06:10:26;;;;;;;;;;;;;;;21.96;60.97;102051.56;5016525;28;1746;-71
2021/07/19 06:12:52;;;;;;;;;;;;;;;21.97;60.77;102049.72;5014970;28;1918;-71
2021/07/19 06:15:17;;;;;;;;;;;;;;;22.00;60.93;102046.75;5016556;28;1395;-71
2021/07/19 06:17:42;;;;;;;;;;;;;;;22.01;60.67;102056.59;5015960;28;1420;-71
2021/07/19 06:20:08;;;;;;;;;;;;;;;22.01;60.49;102053.91;5016069;28;1492;-71
2021/07/19 06:22:34;;;;;;;;;;;;;;;22.00;60.83;102049.47;5012129;28;2224;-70
2021/07/19 06:24:59;;;;;;;;;;;;;;;21.99;61.11;102043.16;5013729;28;1968;-70
2021/07/19 06:27:24;;;;;;;;;;;;;;;21.98;60.93;102059.56;5017091;28;1061;-71
2021/07/19 06:29:49;;;;;;;;;;;;;;;21.94;60.75;102056.28;5017701;28;1543;-71
2021/07/19 06:32:14;;;;;;;;;;;;;;;21.94;60.95;102048.16;5017534;28;1157;-71
2021/07/19 06:34:39;;;;;;;;;;;;;;;21.89;61.00;102057.72;5012297;28;2026;-71
2021/07/19 06:37:04;;;;;;;;;;;;;;;21.84;61.41;102050.03;5015888;28;2159;-71
2021/07/19 06:39:30;;;;;;;;;;;;;;;21.91;61.18;102050.28;5016870;28;792;-71
2021/07/19 06:41:55;;;;;;;;;;;;;;;21.91;61.33;102048.44;5030952;28;1945;-70
2021/07/19 06:44:20;;;;;;;;;;;;;;;21.88;61.25;102047.84;5014322;28;1471;-69
2021/07/19 06:46:45;;;;;;;;;;;;;;;21.85;61.82;102048.16;5016492;28;1414;-67
2021/07/19 06:49:10;;;;;;;;;;;;;;;21.90;61.14;102048.56;5016049;28;1311;-73
2021/07/19 06:51:35;;;;;;;;;;;;;;;21.93;61.17;102040.13;5016389;28;1157;-77
2021/07/19 06:54:00;;;;;;;;;;;;;;;21.97;61.38;102041.56;5016305;28;1962;-69
2021/07/19 06:56:25;;;;;;;;;;;;;;;22.00;61.34;102046.75;5016574;28;1007;-69
2021/07/19 06:58:50;;;;;;;;;;;;;;;21.99;60.81;102043.16;5016107;28;2056;-68
2021/07/19 07:01:15;;;;;;;;;;;;;;;22.00;60.92;102044.03;5016589;28;839;-71
2021/07/19 07:03:40;;;;;;;;;;;;;;;21.95;60.71;102049.00;5014512;28;1847;-74
2021/07/19 07:06:06;;;;;;;;;;;;;;;21.94;60.62;102048.16;5016431;28;1841;-71
2021/07/19 07:08:31;;;;;;;;;;;;;;;21.94;60.66;102052.72;5031746;28;914;-74
2021/07/19 07:10:58;;;;;;;;;;;;;;;21.96;61.23;102061.56;5006655;28;1978;-74
2021/07/19 07:13:23;;;;;;;;;;;;;;;21.95;60.69;102070.72;4997096;28;1910;-73
2021/07/19 07:15:49;;;;;;;;;;;;;;;21.88;60.65;102065.00;4996846;28;911;-70
2021/07/19 07:18:14;;;;;;;;;;;;;;;21.91;60.54;102055.72;5001137;28;1745;-71
2021/07/19 07:20:39;;;;;;;;;;;;;;;21.95;60.88;102049.84;5015997;28;836;-71
2021/07/19 07:23:05;;;;;;;;;;;;;;;21.93;61.04;102051.84;5031394;28;1353;-70
2021/07/19 07:25:30;;;;;;;;;;;;;;;21.91;61.05;102063.84;5016204;28;1022;-72
2021/07/19 07:27:55;;;;;;;;;;;;;;;21.88;60.88;102051.41;5014188;28;1723;-71
2021/07/19 07:30:20;;;;;;;;;;;;;;;21.90;61.24;102052.13;4996584;28;1821;-73
2021/07/19 07:32:45;;;;;;;;;;;;;;;21.94;60.98;102044.56;5027857;28;1941;-72
2021/07/19 07:35:11;;;;;;;;;;;;;;;21.96;60.78;102050.72;5027986;28;1442;-70
2021/07/19 07:37:36;;;;;;;;;;;;;;;21.94;61.04;102052.72;5007814;28;2025;-71
2021/07/19 07:40:01;;;;;;;;;;;;;;;21.93;60.99;102057.28;5030860;28;895;-72
2021/07/19 07:42:28;;;;;;;;;;;;;;;21.94;61.15;102053.56;5015628;28;811;-72
2021/07/19 07:44:53;;;;;;;;;;;;;;;21.93;61.08;102057.28;5015806;28;802;-70
2021/07/19 07:47:19;;;;;;;;;;;;;;;21.92;60.95;102063.72;5024357;28;1937;-67
2021/07/19 07:49:44;;;;;;;;;;;;;;;21.94;61.03;102069.00;5015202;28;1240;-68
2021/07/19 07:52:09;;;;;;;;;;;;;;;21.97;60.98;102063.28;5015455;28;792;-66
2021/07/19 07:54:34;;;;;;;;;;;;;;;21.95;60.92;102068.00;5015425;28;1953;-66
2021/07/19 07:56:59;;;;;;;;;;;;;;;21.91;61.29;102064.72;5014925;28;1670;-66
2021/07/19 07:59:24;;;;;;;;;;;;;;;21.90;60.97;102060.28;5015896;28;804;-66
2021/07/19 08:01:49;;;;;;;;;;;;;;;21.92;61.02;102055.56;5015346;28;823;-67
2021/07/19 08:04:14;;;;;;;;;;;;;;;21.92;61.00;102052.84;5015127;28;811;-68
2021/07/19 08:06:39;;;;;;;;;;;;;;;21.94;60.84;102055.44;5009217;28;2089;-70
2021/07/19 08:09:04;;;;;;;;;;;;;;;21.93;60.63;102057.28;4995771;28;899;-68
2021/07/19 08:11:30;;;;;;;;;;;;;;;21.94;60.51;102063.56;4995583;28;897;-69
2021/07/19 08:13:55;;;;;;;;;;;;;;;21.94;60.37;102061.72;4995606;28;1915;-69
2021/07/19 08:16:20;;;;;;;;;;;;;;;21.95;60.63;102054.44;5001599;28;1846;-70
2021/07/19 08:18:45;;;;;;;;;;;;;;;21.97;60.28;102057.84;5015689;28;858;-68
2021/07/19 08:21:10;;;;;;;;;;;;;;;21.96;60.74;102069.72;5015086;28;994;-68
2021/07/19 08:23:35;;;;;;;;;;;;;;;21.96;60.64;102069.72;5015457;28;981;-66
2021/07/19 08:26:00;;;;;;;;;;;;;;;21.78;60.65;102069.56;5011811;28;1898;-67
2021/07/19 08:28:25;;;;;;;;;;;;;;;21.56;60.61;102065.28;4995275;28;823;-67
2021/07/19 08:30:50;;;;;;;;;;;;;;;21.46;60.80;102061.72;4995559;28;1041;-67
2021/07/19 08:33:15;;;;;;;;;;;;;;;21.56;60.87;102059.00;4995695;28;1894;-67
2021/07/19 08:35:40;;;;;;;;;;;;;;;21.64;60.28;102056.44;4998121;28;1691;-65
2021/07/19 08:38:06;;;;;;;;;;;;;;;21.59;60.42;102056.00;5015282;28;1046;-66
2021/07/19 08:40:31;;;;;;;;;;;;;;;21.66;60.24;102058.03;5014862;28;838;-66
2021/07/19 08:42:57;;;;;;;;;;;;;;;21.81;60.44;102062.00;5014926;28;1018;-65
2021/07/19 08:45:22;;;;;;;;;;;;;;;21.86;60.76;102066.13;5014490;28;1691;-68
2021/07/19 08:47:48;;;;;;;;;;;;;;;21.88;60.74;102066.84;4995562;28;1948;-65
2021/07/19 08:50:13;;;;;;;;;;;;;;;21.87;60.54;102067.84;4995357;28;816;-67
2021/07/19 08:52:38;;;;;;;;;;;;;;;21.86;60.73;102069.69;4995334;28;1898;-66
2021/07/19 08:55:03;;;;;;;;;;;;;;;21.85;60.83;102059.03;4995352;28;982;-67
2021/07/19 08:57:28;;;;;;;;;;;;;;;21.87;60.74;102068.72;4997008;28;1978;-66
2021/07/19 08:59:53;;;;;;;;;;;;;;;21.80;60.68;102057.59;5015044;28;953;-66
2021/07/19 09:02:19;;;;;;;;;;;;;;;21.85;60.66;102056.31;5014784;28;764;-66
2021/07/19 09:04:44;;;;;;;;;;;;;;;21.85;60.51;102059.03;5016768;28;843;-67
2021/07/19 09:07:09;;;;;;;;;;;;;;;21.85;60.62;102068.03;5005858;28;1872;-66
2021/07/19 09:09:34;;;;;;;;;;;;;;;21.80;60.45;102065.72;4999202;28;1005;-66
2021/07/19 09:11:59;;;;;;;;;;;;;;;21.82;60.63;102063.72;5030575;28;937;-66
2021/07/19 09:14:24;;;;;;;;;;;;;;;21.86;60.13;102066.13;4999181;28;1906;-66
2021/07/19 09:16:49;;;;;;;;;;;;;;;21.87;60.51;102049.72;5008941;28;1671;-67
2021/07/19 09:19:14;;;;;;;;;;;;;;;21.88;60.10;102058.72;5018766;28;894;-68
2021/07/19 09:21:39;;;;;;;;;;;;;;;21.90;60.24;102062.13;5018490;28;783;-67
2021/07/19 09:24:06;;;;;;;;;;;;;;;21.90;60.38;102070.28;5018248;28;1873;-68
2021/07/19 09:26:31;;;;;;;;;;;;;;;21.87;60.44;102063.28;4999028;28;752;-66
2021/07/19 09:28:56;;;;;;;;;;;;;;;21.84;59.69;102058.16;4998515;28;823;-66
2021/07/19 09:31:21;;;;;;;;;;;;;;;21.81;59.67;102053.88;5013754;28;1606;-68
2021/07/19 09:33:46;;;;;;;;;;;;;;;21.78;59.16;102053.28;4998718;28;1965;-68
2021/07/19 09:36:11;;;;;;;;;;;;;;;21.78;58.76;102054.16;5015343;28;1972;-68
2021/07/19 09:38:36;;;;;;;;;;;;;;;21.85;59.45;102042.75;5018138;28;799;-68
2021/07/19 09:41:01;;;;;;;;;;;;;;;21.90;58.93;102044.00;5018281;28;1081;-70
2021/07/19 09:43:27;;;;;;;;;;;;;;;21.93;59.32;102043.72;5010282;28;1972;-70
2021/07/19 09:45:52;;;;;;;;;;;;;;;21.92;59.28;102033.84;4998661;28;1001;-73
2021/07/19 09:48:17;;;;;;;;;;;;;;;21.95;59.16;102043.56;4998325;28;816;-69
2021/07/19 09:50:42;;;;;;;;;;;;;;;21.95;58.91;102041.72;4998236;28;998;-69
2021/07/19 09:53:07;;;;;;;;;;;;;;;21.99;58.96;102045.00;5003049;28;1983;-69
2021/07/19 09:55:32;;;;;;;;;;;;;;;22.01;58.89;102037.59;5017580;28;1850;-70
2021/07/19 09:57:57;;;;;;;;;;;;;;;22.03;58.92;102038.31;5017831;28;911;-68
2021/07/19 10:00:22;;;;;;;;;;;;;;;22.04;58.99;102042.72;5017568;28;843;-68
2021/07/19 10:02:47;;;;;;;;;;;;;;;22.02;59.37;102044.75;5017494;28;824;-67
2021/07/19 10:05:12;;;;;;;;;;;;;;;22.01;58.89;102038.47;5011595;28;1675;-68
2021/07/19 10:07:37;;;;;;;;;;;;;;;22.04;59.12;102037.28;4997863;28;847;-68
2021/07/19 10:10:08;;;;;;;;;;;;;;;22.06;58.99;102035.28;4998123;28;1009;-69
2021/07/19 10:12:33;;;;;;;;;;;;;;;22.08;58.84;102038.72;4999880;28;1973;-69
2021/07/19 10:14:58;;;;;;;;;;;;;;;22.07;58.79;102037.00;5016946;28;788;-70
2021/07/19 10:17:24;;;;;;;;;;;;;;;22.06;58.98;102032.56;5016822;28;946;-68
2021/07/19 10:19:49;;;;;;;;;;;;;;;22.08;58.69;102038.72;5017617;28;775;-70
2021/07/19 10:22:14;;;;;;;;;;;;;;;22.07;58.90;102037.88;5017229;28;792;-69
2021/07/19 10:24:39;;;;;;;;;;;;;;;22.08;58.64;102028.72;4998016;28;1937;-68
2021/07/19 10:27:04;;;;;;;;;;;;;;;22.04;58.53;102035.44;5029162;28;1193;-72
2021/07/19 10:29:30;;;;;;;;;;;;;;;22.03;58.47;102032.91;5039596;28;1492;-69
2021/07/19 10:31:55;;;;;;;;;;;;;;;22.04;58.43;102019.16;5032004;28;1284;-69
2021/07/19 10:34:20;;;;;;;;;;;;;;;22.04;58.56;102021.84;5017330;28;1890;-69
2021/07/19 10:36:45;;;;;;;;;;;;;;;22.04;58.65;102016.44;5017548;28;1231;-70
2021/07/19 10:39:10;;;;;;;;;;;;;;;22.05;58.39;102022.72;5017221;28;920;-69
2021/07/19 10:41:36;;;;;;;;;;;;;;;22.05;58.33;102011.84;5016839;28;1882;-69
2021/07/19 10:44:01;;;;;;;;;;;;;;;22.05;58.10;102011.84;5015736;28;1594;-69
2021/07/19 10:46:29;;;;;;;;;;;;;;;22.01;58.50;102003.19;5017178;28;855;-69
2021/07/19 10:48:54;;;;;;;;;;;;;;;22.02;58.72;102007.59;5016321;28;1542;-69
2021/07/19 10:51:20;;;;;;;;;;;;;;;21.99;58.71;102004.28;5016017;28;1369;-69
2021/07/19 10:53:45;;;;;;;;;;;;;;;21.99;58.32;102007.00;5015609;28;1946;-69
2021/07/19 10:56:10;;;;;;;;;;;;;;;21.98;58.13;102008.84;5015622;28;1555;-69
2021/07/19 10:58:35;;;;;;;;;;;;;;;22.05;57.99;102006.44;5041696;28;1623;-69
2021/07/19 11:01:00;;;;;;;;;;;;;;;22.10;57.83;102010.44;5013280;28;1453;-67
2021/07/19 11:03:25;;;;;;;;;;;;;;;22.13;58.05;102001.13;5015155;28;1523;-71
2021/07/19 11:05:53;;;;;;;;;;;;;;;22.17;57.60;102006.13;5016982;28;1504;-70
2021/07/19 11:08:18;;;;;;;;;;;;;;;22.19;57.64;101999.72;5016816;28;821;-69
2021/07/19 11:10:43;;;;;;;;;;;;;;;22.20;57.37;102005.00;5016412;28;779;-70
2021/07/19 11:13:08;;;;;;;;;;;;;;;22.21;57.28;101998.56;5016305;28;1906;-71
2021/07/19 11:15:33;;;;;;;;;;;;;;;22.22;57.22;102011.09;5015879;28;1806;-69
2021/07/19 11:17:58;;;;;;;;;;;;;;;22.19;57.12;101997.84;5016154;28;779;-67
2021/07/19 11:20:24;;;;;;;;;;;;;;;22.22;57.40;101997.53;5016075;28;1001;-68
2021/07/19 11:22:49;;;;;;;;;;;;;;;22.21;57.15;101995.84;5016391;28;1084;-67
2021/07/19 11:25:14;;;;;;;;;;;;;;;22.20;56.92;101994.13;5016210;28;902;-67
2021/07/19 11:27:39;;;;;;;;;;;;;;;22.20;57.11;101990.56;5001905;28;2020;-69
2021/07/19 11:30:05;;;;;;;;;;;;;;;22.19;57.11;101987.00;4996381;28;1790;-68
2021/07/19 11:32:30;;;;;;;;;;;;;;;22.24;57.34;101994.66;5012028;28;1756;-68
2021/07/19 11:34:55;;;;;;;;;;;;;;;22.26;57.11;101998.94;5015668;28;1361;-69
2021/07/19 11:37:20;;;;;;;;;;;;;;;22.25;57.00;101994.53;5015939;28;810;-70
2021/07/19 11:39:45;;;;;;;;;;;;;;;22.26;57.28;101992.66;5014072;28;1840;-69
2021/07/19 11:42:12;;;;;;;;;;;;;;;22.23;57.03;101996.53;5014939;28;1292;-69
2021/07/19 11:44:37;;;;;;;;;;;;;;;22.25;57.11;101993.66;5015849;28;1526;-69
2021/07/19 11:47:04;;;;;;;;;;;;;;;22.28;57.12;101994.22;5015919;28;776;-68
2021/07/19 11:49:29;;;;;;;;;;;;;;;22.27;57.10;101994.38;5015565;28;1269;-69
2021/07/19 11:51:54;;;;;;;;;;;;;;;22.28;57.39;101993.38;5013019;28;1598;-69
2021/07/19 11:54:19;;;;;;;;;;;;;;;22.27;57.11;101981.66;5015492;28;1898;-69
2021/07/19 11:56:44;;;;;;;;;;;;;;;22.27;56.87;101984.38;5015593;28;1172;-69
2021/07/19 11:59:09;;;;;;;;;;;;;;;22.30;56.94;101985.94;5015770;28;888;-69
2021/07/19 12:01:34;;;;;;;;;;;;;;;22.30;56.35;101978.66;5014089;28;1547;-69
2021/07/19 12:03:59;;;;;;;;;;;;;;;22.28;56.61;101979.78;5015182;28;1957;-69
2021/07/19 12:06:25;;;;;;;;;;;;;;;22.29;56.92;101976.94;5015026;28;1811;-68
2021/07/19 12:08:50;;;;;;;;;;;;;;;22.33;56.61;101981.06;5015264;28;808;-69
2021/07/19 12:11:15;;;;;;;;;;;;;;;22.34;57.04;101980.06;5015148;28;1705;-69
2021/07/19 12:13:40;;;;;;;;;;;;;;;22.34;56.69;101973.78;5014889;28;1921;-68
2021/07/19 12:16:05;;;;;;;;;;;;;;;22.32;56.27;101976.66;5014930;28;1795;-68
2021/07/19 12:18:30;;;;;;;;;;;;;;;22.34;56.43;101973.78;5015096;28;985;-69
2021/07/19 12:20:55;;;;;;;;;;;;;;;22.34;56.73;101979.22;5015084;28;827;-69
2021/07/19 12:23:20;;;;;;;;;;;;;;;22.36;56.90;101971.78;5015363;28;811;-69
2021/07/19 12:25:45;;;;;;;;;;;;;;;22.40;56.26;101973.16;5015283;28;995;-69
2021/07/19 12:28:10;;;;;;;;;;;;;;;22.42;56.51;101963.00;5000324;28;1962;-67
2021/07/19 12:30:35;;;;;;;;;;;;;;;22.41;56.67;101973.03;4995198;28;863;-68
2021/07/19 12:33:01;;;;;;;;;;;;;;;22.43;56.36;101967.44;4995316;28;1959;-69
2021/07/19 12:35:29;;;;;;;;;;;;;;;22.41;56.83;101980.31;5000887;28;1903;-69
2021/07/19 12:37:54;;;;;;;;;;;;;;;22.41;56.24;101973.03;4999786;28;1943;-69